Time;durP1;ratioP1;P1;durP2;ratioP2;P2;SDS_P1;SDS_P2;PMS_P1;PMS_P2;Temp;Humidity;BMP_temperature;BMP_pressure;BME280_temperature;BME280_humidity;BME280_pressure;Samples;Min_cycle;Max_cycle;Signal;HPM_P1;HPM_P2
2023/01/09 00:02:08;;;;;;;98.40;42.40;;;;;;;3.04;91.56;99092.83;107050;1273;24223;-60
2023/01/09 00:04:40;;;;;;;96.50;40.60;;;;;;;3.01;91.40;99092.80;106941;1264;23088;-59
2023/01/09 00:07:10;;;;;;;92.40;40.70;;;;;;;2.98;91.26;99093.70;107014;1270;25448;-59
2023/01/09 00:09:41;;;;;;;94.80;41.90;;;;;;;2.95;91.21;99095.96;106976;1276;22762;-58
2023/01/09 00:12:12;;;;;;;89.10;39.40;;;;;;;2.92;91.24;99092.60;107082;1267;22558;-60
2023/01/09 00:14:43;;;;;;;89.50;40.60;;;;;;;2.91;91.55;99082.11;106991;1276;22534;-58
2023/01/09 00:17:14;;;;;;;92.10;41.60;;;;;;;2.91;91.54;99079.59;107062;1261;22542;-59
2023/01/09 00:19:45;;;;;;;85.50;38.80;;;;;;;2.90;91.35;99084.11;106955;1276;22543;-58
2023/01/09 00:22:16;;;;;;;90.20;39.60;;;;;;;2.88;91.37;99077.34;106932;1269;22485;-59
2023/01/09 00:24:47;;;;;;;91.40;40.20;;;;;;;2.85;91.10;99072.20;107085;1276;22679;-59
2023/01/09 00:27:18;;;;;;;100.10;47.30;;;;;;;2.82;91.11;99072.00;107019;1268;22553;-58
2023/01/09 00:29:49;;;;;;;95.10;44.20;;;;;;;2.79;91.04;99078.88;107066;1270;24012;-60
2023/01/09 00:32:20;;;;;;;111.30;50.60;;;;;;;2.76;91.13;99082.79;106940;1276;25970;-58
2023/01/09 00:34:52;;;;;;;100.70;45.50;;;;;;;2.73;90.99;99089.75;106984;1270;23317;-60
2023/01/09 00:37:23;;;;;;;101.40;45.50;;;;;;;2.70;91.09;99088.95;107113;1259;22639;-59
2023/01/09 00:39:54;;;;;;;96.10;45.40;;;;;;;2.67;90.96;99088.27;107288;1274;22583;-59
2023/01/09 00:42:30;;;;;;;89.50;42.80;;;;;;;2.63;90.96;99083.84;107143;1271;22533;-58
2023/01/09 00:45:04;;;;;;;102.20;46.20;;;;;;;2.59;90.75;99087.86;107230;1264;22534;-59
2023/01/09 00:47:38;;;;;;;99.50;45.60;;;;;;;2.55;90.77;99086.38;107094;1273;22555;-59
2023/01/09 00:50:13;;;;;;;91.40;44.10;;;;;;;2.50;90.74;99088.69;107149;1270;24190;-60
2023/01/09 00:52:45;;;;;;;97.80;44.50;;;;;;;2.47;91.00;99091.00;107242;1274;22562;-60
2023/01/09 00:55:17;;;;;;;92.00;44.10;;;;;;;2.47;91.01;99087.84;107256;1274;22527;-57
2023/01/09 00:57:48;;;;;;;95.90;43.30;;;;;;;2.46;90.93;99083.55;107361;1274;26550;-59
2023/01/09 01:00:20;;;;;;;92.40;42.00;;;;;;;2.44;91.03;99084.02;107145;1263;25475;-60
2023/01/09 01:02:51;;;;;;;93.60;42.60;;;;;;;2.41;90.79;99089.35;107196;1267;22529;-56
2023/01/09 01:08:13;;;;;;;93.80;41.60;;;;;;;2.38;91.20;99089.04;107127;1274;23783;-59
2023/01/09 01:10:44;;;;;;;89.10;40.90;;;;;;;2.36;91.19;99084.27;107200;1261;22535;-58
2023/01/09 01:13:16;;;;;;;85.40;39.80;;;;;;;2.36;91.41;99082.61;107159;1260;22649;-61
2023/01/09 01:15:47;;;;;;;84.90;40.60;;;;;;;2.34;91.25;99088.66;107110;1274;22543;-59
2023/01/09 01:18:18;;;;;;;92.20;41.60;;;;;;;2.32;91.42;99081.55;107190;1274;25425;-58
2023/01/09 01:20:49;;;;;;;99.50;45.80;;;;;;;2.33;91.60;99078.38;107135;1270;22852;-59
2023/01/09 01:23:20;;;;;;;102.50;45.50;;;;;;;2.33;91.60;99073.29;107113;1274;25419;-58
2023/01/09 01:25:51;;;;;;;88.00;41.20;;;;;;;2.33;91.67;99072.88;107132;1267;26207;-58
2023/01/09 01:28:22;;;;;;;78.20;37.20;;;;;;;2.33;91.68;99080.77;107181;1261;22527;-58
2023/01/09 01:30:53;;;;;;;84.90;37.70;;;;;;;2.33;91.65;99080.61;107175;1273;24210;-59
2023/01/09 01:33:24;;;;;;;86.50;40.90;;;;;;;2.32;91.66;99074.73;107163;1267;24325;-59
2023/01/09 01:36:03;;;;;;;96.80;40.80;;;;;;;2.31;91.73;99073.91;107245;1273;22532;-57
2023/01/09 01:38:36;;;;;;;81.50;39.00;;;;;;;2.30;91.82;99068.42;107254;1274;22528;-60
2023/01/09 01:41:07;;;;;;;89.10;40.30;;;;;;;2.30;91.87;99063.16;107264;1270;24203;-58
2023/01/09 01:43:56;;;;;;;83.20;37.20;;;;;;;2.31;91.92;99055.11;107057;1261;25263;-60
2023/01/09 01:46:27;;;;;;;81.60;35.70;;;;;;;2.29;91.88;99050.21;107284;1267;25437;-58
2023/01/09 01:49:03;;;;;;;77.10;34.10;;;;;;;2.28;91.93;99057.83;107149;1274;25475;-58
2023/01/09 01:51:41;;;;;;;75.50;35.00;;;;;;;2.28;92.02;99056.17;107161;1270;22529;-58
2023/01/09 01:54:21;;;;;;;82.10;33.70;;;;;;;2.26;91.99;99049.06;107160;1275;24083;-59
2023/01/09 01:56:55;;;;;;;72.40;31.50;;;;;;;2.25;92.03;99042.98;107329;1270;22478;-58
2023/01/09 01:59:32;;;;;;;65.60;30.90;;;;;;;2.24;92.12;99038.14;107588;1267;23916;-59
2023/01/09 02:02:04;;;;;;;69.80;33.60;;;;;;;2.22;92.10;99029.55;108009;1270;22623;-58
2023/01/09 02:04:39;;;;;;;70.60;32.30;;;;;;;2.22;92.25;99026.34;107303;1274;22653;-58
2023/01/09 02:07:11;;;;;;;76.50;35.40;;;;;;;2.22;92.32;99021.30;107112;1267;22518;-60
2023/01/09 02:09:45;;;;;;;70.60;33.30;;;;;;;2.22;92.32;99019.65;107244;1274;22543;-59
2023/01/09 02:12:23;;;;;;;68.80;31.10;;;;;;;2.21;92.46;99015.20;107323;1261;24295;-59
2023/01/09 02:15:02;;;;;;;61.90;29.90;;;;;;;2.21;92.50;99009.95;107219;1274;22544;-59
2023/01/09 02:17:54;;;;;;;66.90;30.30;;;;;;;2.21;92.68;99003.33;107184;1274;23854;-58
2023/01/09 02:20:38;;;;;;;67.40;30.70;;;;;;;2.21;92.67;98995.48;107224;1261;24315;-61
2023/01/09 02:23:47;;;;;;;66.10;30.40;;;;;;;2.20;92.58;98992.13;107136;1267;24189;-59
2023/01/09 02:26:35;;;;;;;72.80;30.30;;;;;;;2.20;92.56;98980.71;106722;1277;23828;-58
2023/01/09 02:29:45;;;;;;;68.10;32.60;;;;;;;2.21;92.63;98974.55;106818;1279;22750;-57
2023/01/09 02:32:33;;;;;;;62.00;28.80;;;;;;;2.21;92.68;98967.94;106745;1264;22574;-59
2023/01/09 02:35:16;;;;;;;77.10;32.40;;;;;;;2.21;92.71;98965.50;106730;1265;22538;-60
2023/01/09 02:37:56;;;;;;;67.30;30.70;;;;;;;2.22;92.74;98963.16;106877;1272;23016;-59
2023/01/09 02:40:33;;;;;;;65.10;30.20;;;;;;;2.21;92.77;98954.48;106792;1279;25649;-59
2023/01/09 02:43:05;;;;;;;66.40;32.50;;;;;;;2.21;92.88;98951.27;106919;1279;22533;-58
2023/01/09 02:45:36;;;;;;;67.70;29.80;;;;;;;2.19;92.92;98942.90;106867;1273;22546;-60
2023/01/09 02:48:08;;;;;;;62.10;27.50;;;;;;;2.18;93.04;98944.36;106723;1264;22584;-59
2023/01/09 02:50:48;;;;;;;64.20;28.90;;;;;;;2.17;93.10;98939.59;106718;1277;22555;-59
2023/01/09 02:53:48;;;;;;;58.00;27.40;;;;;;;2.19;93.11;98932.59;106787;1279;22550;-57
2023/01/09 02:56:35;;;;;;;56.00;26.30;;;;;;;2.20;93.11;98929.97;106833;1279;22476;-60
2023/01/09 02:59:24;;;;;;;60.40;28.30;;;;;;;2.21;93.12;98928.20;106832;1276;24043;-56
2023/01/09 03:02:08;;;;;;;61.30;28.80;;;;;;;2.21;93.12;98930.80;106685;1265;22555;-58
2023/01/09 03:04:52;;;;;;;69.90;31.90;;;;;;;2.21;93.16;98923.03;107171;1274;22540;-58
2023/01/09 03:07:30;;;;;;;67.40;30.40;;;;;;;2.20;93.17;98921.47;107081;1274;22572;-60
2023/01/09 03:10:08;;;;;;;67.00;31.40;;;;;;;2.22;93.19;98919.90;107184;1274;22532;-58
2023/01/09 03:12:41;;;;;;;72.40;33.40;;;;;;;2.21;93.29;98919.29;107353;1274;25887;-61
2023/01/09 03:15:15;;;;;;;68.10;29.30;;;;;;;2.22;93.30;98913.95;107265;1264;22553;-60
2023/01/09 03:17:50;;;;;;;60.80;29.10;;;;;;;2.21;93.40;98908.38;107299;1268;22899;-59
2023/01/09 03:20:26;;;;;;;58.80;29.50;;;;;;;2.21;93.35;98909.73;107190;1263;22551;-58
2023/01/09 03:23:00;;;;;;;59.60;26.80;;;;;;;2.21;93.32;98910.91;107195;1267;22583;-58
2023/01/09 03:25:32;;;;;;;64.10;27.90;;;;;;;2.21;93.37;98913.18;107246;1274;24202;-59
2023/01/09 03:28:05;;;;;;;61.40;27.80;;;;;;;2.22;93.37;98908.49;107233;1270;23938;-58
2023/01/09 03:30:37;;;;;;;60.90;27.90;;;;;;;2.22;93.39;98912.36;107126;1267;22541;-59
2023/01/09 03:33:08;;;;;;;57.40;26.30;;;;;;;2.22;93.35;98908.55;107451;1270;22527;-58
2023/01/09 03:35:39;;;;;;;60.60;27.00;;;;;;;2.23;93.30;98903.18;107299;1267;25441;-57
2023/01/09 03:38:10;;;;;;;58.60;26.50;;;;;;;2.23;93.22;98899.79;107182;1273;22515;-59
2023/01/09 03:40:43;;;;;;;58.30;26.00;;;;;;;2.23;93.23;98900.36;107218;1261;22527;-59
2023/01/09 03:43:13;;;;;;;55.70;25.00;;;;;;;2.22;93.20;98899.69;107330;1267;24215;-59
2023/01/09 03:45:45;;;;;;;54.30;24.60;;;;;;;2.21;93.21;98894.91;107252;1273;25298;-60
2023/01/09 03:48:16;;;;;;;53.50;24.40;;;;;;;2.20;93.12;98893.38;107146;1273;22592;-59
2023/01/09 03:50:47;;;;;;;60.10;27.60;;;;;;;2.19;93.23;98894.04;107196;1258;23026;-59
2023/01/09 03:53:20;;;;;;;55.70;25.70;;;;;;;2.19;93.28;98884.63;107210;1273;25549;-60
2023/01/09 03:55:54;;;;;;;51.40;23.60;;;;;;;2.18;93.29;98879.95;107205;1273;25441;-59
2023/01/09 03:58:26;;;;;;;58.00;24.20;;;;;;;2.15;93.34;98877.06;107201;1273;24192;-57
2023/01/09 04:01:01;;;;;;;54.20;24.70;;;;;;;2.13;93.40;98868.52;107351;1273;24244;-59
2023/01/09 04:03:32;;;;;;;51.10;23.50;;;;;;;2.11;93.52;98862.66;107638;1273;22489;-58
2023/01/09 04:06:03;;;;;;;46.00;20.70;;;;;;;2.11;93.57;98857.66;108408;1264;22528;-59
2023/01/09 04:08:34;;;;;;;43.60;20.10;;;;;;;2.11;93.65;98857.90;107283;1273;25347;-60
2023/01/09 04:11:05;;;;;;;50.90;21.90;;;;;;;2.11;93.71;98854.94;107227;1273;22544;-57
2023/01/09 04:13:36;;;;;;;50.30;22.60;;;;;;;2.09;93.86;98853.80;107227;1267;22608;-58
2023/01/09 04:16:08;;;;;;;51.40;22.20;;;;;;;2.06;93.82;98848.26;107192;1266;23828;-61
2023/01/09 04:18:39;;;;;;;51.50;22.80;;;;;;;2.04;93.84;98854.34;107276;1273;24235;-57
2023/01/09 04:21:10;;;;;;;49.50;23.20;;;;;;;2.04;93.93;98865.16;107272;1273;24212;-58
2023/01/09 04:23:41;;;;;;;56.20;24.00;;;;;;;2.05;94.11;98866.02;107174;1267;22591;-59
2023/01/09 04:26:12;;;;;;;49.10;20.50;;;;;;;2.04;94.16;98867.23;107173;1273;22531;-57
2023/01/09 04:28:43;;;;;;;44.90;21.20;;;;;;;2.04;94.31;98860.91;107175;1263;22821;-60
2023/01/09 04:31:14;;;;;;;46.80;20.50;;;;;;;2.04;94.36;98855.20;107225;1257;23584;-59
2023/01/09 04:33:45;;;;;;;50.60;20.40;;;;;;;2.03;94.46;98849.00;107182;1273;22609;-59
2023/01/09 04:36:17;;;;;;;51.70;21.60;;;;;;;2.03;94.54;98853.41;107211;1270;22726;-57
2023/01/09 04:38:47;;;;;;;43.00;19.20;;;;;;;2.04;94.66;98849.69;107201;1268;22547;-58
2023/01/09 04:44:03;;;;;;;53.30;21.40;;;;;;;2.07;94.79;98832.80;107180;1258;22656;-58
2023/01/09 04:46:34;;;;;;;46.00;20.90;;;;;;;2.09;94.96;98831.06;107178;1273;22729;-58
2023/01/09 04:49:05;;;;;;;44.80;19.40;;;;;;;2.13;95.10;98827.98;107237;1273;22534;-59
2023/01/09 04:51:36;;;;;;;49.10;22.20;;;;;;;2.15;95.09;98827.29;107182;1273;22540;-58
2023/01/09 04:54:07;;;;;;;50.00;21.60;;;;;;;2.17;95.01;98823.84;107152;1251;25649;-59
2023/01/09 04:56:39;;;;;;;52.80;22.40;;;;;;;2.18;95.01;98824.56;107199;1273;24212;-59
2023/01/09 04:59:10;;;;;;;54.30;22.10;;;;;;;2.20;95.00;98822.28;107306;1273;22592;-57
2023/01/09 05:01:41;;;;;;;43.90;19.60;;;;;;;2.20;94.96;98814.90;107235;1272;25484;-58
2023/01/09 05:04:13;;;;;;;46.00;21.00;;;;;;;2.20;94.92;98815.91;107315;1257;24311;-58
2023/01/09 05:06:43;;;;;;;52.20;21.10;;;;;;;2.18;94.90;98818.03;107315;1273;23156;-57
2023/01/09 05:09:14;;;;;;;48.20;20.90;;;;;;;2.18;94.95;98820.16;107186;1273;24175;-60
2023/01/09 05:11:45;;;;;;;46.60;21.30;;;;;;;2.19;95.02;98824.45;107186;1258;24349;-57
2023/01/09 05:14:16;;;;;;;42.60;18.50;;;;;;;2.17;94.89;98823.90;107248;1270;22544;-57
2023/01/09 05:16:47;;;;;;;46.60;20.40;;;;;;;2.16;94.87;98824.17;107326;1258;22653;-58
2023/01/09 05:19:19;;;;;;;43.40;17.60;;;;;;;2.16;94.98;98820.32;107108;1265;25631;-59
2023/01/09 05:21:50;;;;;;;44.40;20.20;;;;;;;2.17;95.00;98813.58;107215;1273;23141;-57
2023/01/09 05:24:22;;;;;;;46.10;19.00;;;;;;;2.19;95.02;98805.23;107193;1270;22556;-58
2023/01/09 05:26:53;;;;;;;45.60;18.10;;;;;;;2.19;94.96;98802.73;107136;1270;24191;-61
2023/01/09 05:29:24;;;;;;;48.40;19.20;;;;;;;2.18;94.99;98806.48;107082;1254;22531;-60
2023/01/09 05:31:55;;;;;;;44.70;20.20;;;;;;;2.18;95.02;98814.35;107186;1266;22530;-58
2023/01/09 05:34:26;;;;;;;36.20;16.70;;;;;;;2.15;95.06;98802.27;107218;1265;24180;-59
2023/01/09 05:36:57;;;;;;;41.70;18.70;;;;;;;2.14;95.13;98799.95;107179;1272;26313;-59
2023/01/09 05:39:28;;;;;;;45.50;19.40;;;;;;;2.15;95.18;98797.10;107155;1261;24258;-58
2023/01/09 05:41:59;;;;;;;44.80;20.30;;;;;;;2.14;95.09;98795.64;107112;1269;22693;-56
2023/01/09 05:44:29;;;;;;;52.90;22.10;;;;;;;2.13;95.08;98796.52;107148;1267;22533;-60
2023/01/09 05:47:00;;;;;;;48.90;20.10;;;;;;;2.10;94.94;98787.52;107085;1262;22502;-56
2023/01/09 05:49:31;;;;;;;47.30;19.60;;;;;;;2.07;94.92;98776.17;107131;1255;24309;-58
2023/01/09 05:52:03;;;;;;;49.70;22.20;;;;;;;2.08;95.15;98774.34;107148;1272;23020;-58
2023/01/09 05:54:34;;;;;;;46.40;20.50;;;;;;;2.09;95.16;98771.80;107087;1258;25431;-65
2023/01/09 05:57:05;;;;;;;50.50;21.20;;;;;;;2.07;95.07;98770.66;106960;1268;24765;-59
2023/01/09 05:59:36;;;;;;;46.60;19.20;;;;;;;2.09;95.17;98764.79;106646;1259;24339;-58
2023/01/09 06:02:07;;;;;;;50.10;20.40;;;;;;;2.07;95.16;98765.59;106643;1252;24458;-58
2023/01/09 06:04:38;;;;;;;45.10;18.90;;;;;;;2.07;95.25;98762.29;106664;1270;24244;-59
2023/01/09 06:07:09;;;;;;;41.10;17.90;;;;;;;2.07;95.26;98762.98;106617;1266;24330;-58
2023/01/09 06:09:41;;;;;;;44.60;18.50;;;;;;;2.08;95.26;98759.38;106749;1256;25471;-57
2023/01/09 06:12:11;;;;;;;43.70;19.70;;;;;;;2.10;95.32;98757.91;106577;1267;24381;-56
2023/01/09 06:14:42;;;;;;;47.80;20.00;;;;;;;2.11;95.34;98755.74;106464;1268;23446;-59
2023/01/09 06:17:13;;;;;;;45.60;19.20;;;;;;;2.11;95.46;98757.55;106540;1267;22523;-58
2023/01/09 06:19:44;;;;;;;46.90;22.10;;;;;;;2.12;95.61;98757.34;106592;1273;25375;-59
2023/01/09 06:22:15;;;;;;;46.30;20.10;;;;;;;2.14;95.57;98748.38;106584;1257;22540;-59
2023/01/09 06:24:46;;;;;;;44.60;20.00;;;;;;;2.16;95.68;98746.63;106609;1273;24379;-59
2023/01/09 06:27:17;;;;;;;42.10;17.90;;;;;;;2.17;95.65;98746.57;106575;1273;22613;-59
2023/01/09 06:29:48;;;;;;;40.50;20.00;;;;;;;2.18;95.72;98739.98;106574;1266;25297;-58
2023/01/09 06:32:19;;;;;;;46.40;22.20;;;;;;;2.20;95.81;98740.77;106555;1266;24353;-59
2023/01/09 06:34:50;;;;;;;46.20;21.40;;;;;;;2.22;95.80;98737.48;106557;1267;22992;-56
2023/01/09 06:37:21;;;;;;;51.40;20.30;;;;;;;2.23;95.96;98735.55;106583;1265;24247;-57
2023/01/09 06:39:52;;;;;;;46.10;23.10;;;;;;;2.24;95.88;98732.89;106678;1267;24354;-57
2023/01/09 06:42:23;;;;;;;51.80;23.00;;;;;;;2.25;95.98;98732.16;106641;1267;24223;-58
2023/01/09 06:44:54;;;;;;;49.20;21.60;;;;;;;2.26;96.16;98741.05;106558;1273;22676;-58
2023/01/09 06:47:25;;;;;;;47.20;22.00;;;;;;;2.26;96.08;98754.59;106623;1259;24266;-58
2023/01/09 06:49:57;;;;;;;47.30;21.00;;;;;;;2.28;96.09;98766.70;106532;1273;22877;-59
2023/01/09 06:52:28;;;;;;;48.20;20.70;;;;;;;2.31;96.16;98770.13;106811;1252;24261;-61
2023/01/09 06:54:59;;;;;;;44.90;20.90;;;;;;;2.31;96.20;98763.58;106648;1258;25157;-58
2023/01/09 06:57:30;;;;;;;50.00;20.80;;;;;;;2.34;96.30;98757.48;106839;1269;22523;-60
2023/01/09 07:00:01;;;;;;;50.10;21.90;;;;;;;2.36;96.33;98755.20;106535;1258;23024;-60
2023/01/09 07:02:32;;;;;;;54.20;26.20;;;;;;;2.38;96.33;98747.06;106913;1250;22583;-59
2023/01/09 07:05:06;;;;;;;99.20;52.70;;;;;;;2.40;96.31;98738.40;106587;1268;22925;-60
2023/01/09 07:07:37;;;;;;;89.70;46.00;;;;;;;2.41;96.26;98733.17;107459;1251;24382;-60
2023/01/09 07:10:12;;;;;;;55.50;27.30;;;;;;;2.41;96.34;98731.81;106586;1266;22523;-56
2023/01/09 07:12:43;;;;;;;56.50;26.20;;;;;;;2.41;96.39;98736.62;106823;1261;23282;-57
2023/01/09 07:15:14;;;;;;;51.00;24.00;;;;;;;2.43;96.51;98733.80;106456;1270;22527;-57
2023/01/09 07:17:44;;;;;;;49.10;21.40;;;;;;;2.45;96.46;98731.90;106520;1257;22571;-59
2023/01/09 07:20:16;;;;;;;42.90;20.40;;;;;;;2.47;96.48;98733.16;106543;1273;25304;-59
2023/01/09 07:22:48;;;;;;;44.30;21.70;;;;;;;2.48;96.47;98734.48;106892;1267;22527;-59
2023/01/09 07:25:19;;;;;;;46.60;22.60;;;;;;;2.49;96.51;98743.23;106605;1273;24392;-59
2023/01/09 07:27:50;;;;;;;46.80;21.90;;;;;;;2.49;96.57;98744.94;106536;1273;23140;-59
2023/01/09 07:30:21;;;;;;;49.80;22.30;;;;;;;2.50;96.54;98747.81;106616;1273;22608;-61
2023/01/09 07:32:52;;;;;;;48.70;21.50;;;;;;;2.52;96.54;98751.30;106582;1258;22598;-57
2023/01/09 07:35:23;;;;;;;49.20;21.90;;;;;;;2.56;96.65;98752.61;106580;1273;22525;-61
2023/01/09 07:37:54;;;;;;;51.70;22.20;;;;;;;2.59;96.68;98750.36;106553;1258;25308;-60
2023/01/09 07:40:25;;;;;;;51.10;23.50;;;;;;;2.59;96.68;98745.29;106611;1257;22633;-59
2023/01/09 07:42:56;;;;;;;45.00;20.60;;;;;;;2.59;96.77;98738.54;106713;1273;22527;-61
2023/01/09 07:45:27;;;;;;;47.70;21.00;;;;;;;2.60;97.03;98743.61;106588;1273;22555;-59
2023/01/09 07:47:59;;;;;;;49.70;22.90;;;;;;;2.61;97.00;98746.21;106594;1270;23157;-59
2023/01/09 07:50:30;;;;;;;59.40;26.30;;;;;;;2.63;97.10;98744.15;106640;1268;22520;-60
2023/01/09 07:53:01;;;;;;;53.40;24.10;;;;;;;2.65;97.24;98745.96;106528;1254;22591;-59
2023/01/09 07:55:32;;;;;;;58.10;26.30;;;;;;;2.67;97.30;98740.20;106649;1266;25355;-59
2023/01/09 07:58:03;;;;;;;55.50;24.10;;;;;;;2.69;97.37;98732.42;106570;1273;24260;-58
2023/01/09 08:00:34;;;;;;;53.90;25.30;;;;;;;2.71;97.27;98728.59;106584;1273;22534;-60
2023/01/09 08:03:05;;;;;;;57.60;25.40;;;;;;;2.75;97.34;98722.86;106523;1258;22545;-58
2023/01/09 08:05:36;;;;;;;53.70;24.50;;;;;;;2.76;97.38;98721.45;106694;1265;22548;-59
2023/01/09 08:08:08;;;;;;;55.60;26.30;;;;;;;2.79;97.45;98718.89;106640;1269;24326;-59
2023/01/09 08:10:38;;;;;;;138.30;73.30;;;;;;;2.81;97.43;98713.14;106601;1270;22538;-59
2023/01/09 08:13:09;;;;;;;193.50;107.90;;;;;;;2.83;97.66;98720.66;106655;1273;24323;-56
2023/01/09 08:15:40;;;;;;;119.40;62.50;;;;;;;2.85;97.77;98722.92;106764;1265;22523;-58
2023/01/09 08:18:11;;;;;;;84.20;41.10;;;;;;;2.87;98.01;98722.42;106744;1270;22718;-59
2023/01/09 08:20:42;;;;;;;71.30;33.30;;;;;;;2.90;97.98;98722.33;106538;1268;22531;-59
2023/01/09 08:23:13;;;;;;;65.40;30.70;;;;;;;2.91;98.02;98722.63;106642;1273;22538;-59
2023/01/09 08:25:44;;;;;;;60.20;28.30;;;;;;;2.95;98.19;98724.88;106740;1267;22536;-58
2023/01/09 08:28:16;;;;;;;65.00;29.40;;;;;;;2.98;98.30;98723.75;106595;1273;23060;-59
2023/01/09 08:30:48;;;;;;;65.80;31.40;;;;;;;3.00;98.37;98718.69;106718;1273;23157;-59
2023/01/09 08:33:19;;;;;;;65.10;29.40;;;;;;;3.03;98.37;98717.70;106577;1270;24384;-59
2023/01/09 08:35:50;;;;;;;65.50;29.20;;;;;;;3.05;98.54;98718.38;106805;1273;22558;-59
2023/01/09 08:38:22;;;;;;;67.10;28.20;;;;;;;3.06;98.62;98720.27;106591;1273;24231;-58
2023/01/09 08:40:52;;;;;;;56.70;26.00;;;;;;;3.09;98.72;98721.61;106545;1270;25357;-58
2023/01/09 08:49:08;;;;;;;56.40;25.10;;;;;;;3.18;98.94;98722.83;106560;1266;23693;-58
2023/01/09 08:51:39;;;;;;;52.50;24.60;;;;;;;3.19;98.98;98722.58;106653;1273;24312;-56
2023/01/09 08:54:10;;;;;;;53.90;24.30;;;;;;;3.23;99.02;98717.52;106579;1273;22523;-59
2023/01/09 08:56:41;;;;;;;54.70;25.30;;;;;;;3.25;99.06;98719.44;106623;1258;22527;-59
2023/01/09 08:59:13;;;;;;;58.20;25.00;;;;;;;3.28;99.26;98714.73;106583;1273;22523;-58
2023/01/09 09:01:44;;;;;;;63.60;28.40;;;;;;;3.30;99.30;98716.23;106674;1262;25389;-58
2023/01/09 09:04:15;;;;;;;61.10;30.60;;;;;;;3.34;99.34;98709.85;106641;1265;24273;-58
2023/01/09 09:06:46;;;;;;;69.60;32.90;;;;;;;3.39;99.51;98705.20;106662;1273;25393;-61
2023/01/09 09:09:17;;;;;;;69.60;32.60;;;;;;;3.43;99.77;98707.89;106581;1270;22533;-56
2023/01/09 09:11:49;;;;;;;72.30;33.70;;;;;;;3.47;99.79;98709.73;106663;1273;22532;-59
2023/01/09 09:17:08;;;;;;;68.60;30.50;;;;;;;3.56;99.99;98703.17;106560;1268;24343;-59
2023/01/09 09:19:41;;;;;;;65.90;29.40;;;;;;;3.61;100.00;98696.12;106621;1270;22530;-60
2023/01/09 09:22:12;;;;;;;63.90;30.30;;;;;;;3.66;100.00;98693.58;106658;1257;24199;-56
2023/01/09 09:24:43;;;;;;;62.00;29.20;;;;;;;3.71;100.00;98700.29;106687;1273;22652;-59
2023/01/09 09:27:14;;;;;;;60.70;29.50;;;;;;;3.76;100.00;98695.92;106636;1273;24391;-58
2023/01/09 09:29:45;;;;;;;59.50;28.90;;;;;;;3.81;100.00;98697.19;106622;1258;24415;-56
2023/01/09 09:32:16;;;;;;;63.60;29.00;;;;;;;3.86;100.00;98700.45;106605;1273;24223;-58
2023/01/09 09:34:47;;;;;;;58.50;28.10;;;;;;;3.92;100.00;98701.98;106622;1270;26532;-57
2023/01/09 09:37:18;;;;;;;60.90;28.20;;;;;;;3.97;100.00;98699.77;106580;1257;25250;-56
2023/01/09 09:39:48;;;;;;;69.20;32.90;;;;;;;4.02;100.00;98700.18;106633;1273;24376;-59
2023/01/09 09:45:34;;;;;;;63.20;30.60;;;;;;;4.12;100.00;98708.31;106591;1268;22671;-59
2023/01/09 09:48:18;;;;;;;61.80;26.80;;;;;;;4.17;100.00;98706.85;106666;1273;22504;-56
2023/01/09 09:51:10;;;;;;;51.00;24.20;;;;;;;4.22;100.00;98710.15;106709;1268;24316;-59
2023/01/09 09:53:48;;;;;;;51.40;22.40;;;;;;;4.27;100.00;98710.15;106795;1254;22526;-60
2023/01/09 09:56:22;;;;;;;49.20;21.90;;;;;;;4.32;100.00;98706.34;106605;1266;22523;-59
2023/01/09 09:58:59;;;;;;;47.30;22.90;;;;;;;4.36;100.00;98706.33;106687;1273;24278;-59
2023/01/09 10:01:38;;;;;;;48.90;22.80;;;;;;;4.41;100.00;98706.07;106564;1265;22527;-56
2023/01/09 10:04:15;;;;;;;48.80;23.80;;;;;;;4.47;100.00;98705.31;106608;1273;22567;-57
2023/01/09 10:06:49;;;;;;;51.50;25.50;;;;;;;4.51;100.00;98705.48;106812;1272;23076;-57
2023/01/09 10:09:34;;;;;;;54.00;26.10;;;;;;;4.55;100.00;98704.06;106720;1273;25251;-57
2023/01/09 10:12:16;;;;;;;50.50;23.80;;;;;;;4.60;100.00;98702.17;106652;1273;22607;-58
2023/01/09 10:14:47;;;;;;;45.80;21.90;;;;;;;4.64;100.00;98707.09;106804;1273;24395;-59
2023/01/09 10:17:44;;;;;;;47.90;22.40;;;;;;;4.69;100.00;98710.28;106702;1268;22523;-60
2023/01/09 10:20:47;;;;;;;48.00;21.90;;;;;;;4.75;100.00;98713.35;106868;1262;22630;-58
2023/01/09 10:23:37;;;;;;;54.30;24.00;;;;;;;4.80;100.00;98715.11;106722;1269;24398;-61
2023/01/09 10:26:16;;;;;;;50.30;22.00;;;;;;;4.87;100.00;98712.36;106561;1258;24270;-59
2023/01/09 10:29:03;;;;;;;50.70;23.00;;;;;;;4.93;100.00;98713.92;106605;1273;22671;-60
2023/01/09 10:31:44;;;;;;;47.20;22.80;;;;;;;5.01;100.00;98716.66;106733;1273;22548;-60
2023/01/09 10:34:30;;;;;;;54.30;26.00;;;;;;;5.08;100.00;98715.91;106715;1273;23280;-59
2023/01/09 10:37:06;;;;;;;55.70;26.30;;;;;;;5.15;100.00;98718.45;106604;1253;25487;-59
2023/01/09 10:39:42;;;;;;;49.50;23.00;;;;;;;5.21;100.00;98719.55;106799;1273;22573;-56
2023/01/09 10:42:22;;;;;;;48.10;22.60;;;;;;;5.27;100.00;98717.23;106795;1273;22529;-59
2023/01/09 10:45:01;;;;;;;47.40;21.90;;;;;;;5.33;100.00;98721.00;106642;1273;22594;-59
2023/01/09 10:47:35;;;;;;;43.70;20.40;;;;;;;5.38;100.00;98718.16;106553;1270;25905;-59
2023/01/09 10:50:20;;;;;;;38.90;18.50;;;;;;;5.43;100.00;98718.38;106703;1269;22527;-59
2023/01/09 10:52:55;;;;;;;42.50;22.20;;;;;;;5.48;100.00;98712.31;106660;1258;25409;-60
2023/01/09 10:55:33;;;;;;;42.80;22.80;;;;;;;5.53;100.00;98708.02;106671;1273;24241;-57
2023/01/09 10:58:11;;;;;;;44.20;20.20;;;;;;;5.57;100.00;98705.00;106726;1273;22549;-59
2023/01/09 11:00:43;;;;;;;45.60;21.50;;;;;;;5.61;100.00;98701.52;106756;1273;22523;-59
2023/01/09 11:03:16;;;;;;;40.50;20.60;;;;;;;5.64;100.00;98704.90;106860;1268;22686;-59
2023/01/09 11:05:52;;;;;;;42.80;20.70;;;;;;;5.68;100.00;98704.25;106752;1250;22523;-60
2023/01/09 11:08:29;;;;;;;47.10;21.90;;;;;;;5.71;100.00;98704.35;106625;1273;25490;-60
2023/01/09 11:11:02;;;;;;;41.30;20.20;;;;;;;5.74;100.00;98702.01;106656;1271;25920;-60
2023/01/09 11:13:35;;;;;;;46.30;21.70;;;;;;;5.78;100.00;98696.67;106623;1270;24401;-59
2023/01/09 11:16:20;;;;;;;45.40;21.80;;;;;;;5.82;100.00;98696.12;106742;1265;22534;-58
2023/01/09 11:18:54;;;;;;;40.90;18.20;;;;;;;5.86;100.00;98693.04;106605;1273;24255;-59
2023/01/09 11:21:36;;;;;;;39.20;18.80;;;;;;;5.91;100.00;98695.27;106782;1273;22542;-59
2023/01/09 11:24:28;;;;;;;41.60;19.10;;;;;;;5.95;100.00;98691.58;106826;1268;25403;-58
2023/01/09 11:27:23;;;;;;;43.20;18.50;;;;;;;6.01;100.00;98689.98;106677;1269;22672;-59
2023/01/09 11:30:18;;;;;;;40.20;19.10;;;;;;;6.06;100.00;98697.90;106729;1267;22556;-59
2023/01/09 11:32:49;;;;;;;45.20;20.80;;;;;;;6.11;100.00;98689.70;106731;1273;24351;-58
2023/01/09 11:35:27;;;;;;;44.50;19.10;;;;;;;6.15;100.00;98688.70;106623;1268;25308;-58
2023/01/09 11:38:12;;;;;;;40.30;18.40;;;;;;;6.19;100.00;98693.68;106836;1270;22549;-60
2023/01/09 11:40:52;;;;;;;41.50;18.60;;;;;;;6.22;100.00;98692.55;106653;1273;22540;-58
2023/01/09 11:43:29;;;;;;;42.70;20.00;;;;;;;6.26;100.00;98693.35;106764;1265;24260;-60
2023/01/09 11:46:03;;;;;;;41.30;17.30;;;;;;;6.29;100.00;98692.85;106724;1273;23934;-60
2023/01/09 11:48:38;;;;;;;43.90;20.40;;;;;;;6.31;100.00;98691.91;106635;1268;175252;-59
2023/01/09 11:51:21;;;;;;;39.10;18.60;;;;;;;6.32;100.00;98690.77;106680;1271;22657;-57
2023/01/09 11:54:12;;;;;;;42.40;20.50;;;;;;;6.35;100.00;98686.57;106651;1261;24879;-57
2023/01/09 11:56:44;;;;;;;41.00;19.80;;;;;;;6.38;100.00;98689.06;106704;1273;22527;-61
2023/01/09 11:59:17;;;;;;;41.50;19.40;;;;;;;6.41;100.00;98695.84;106741;1271;22529;-59
2023/01/09 12:02:25;;;;;;;42.90;20.10;;;;;;;6.44;100.00;98694.77;106800;1273;22523;-61
2023/01/09 12:04:59;;;;;;;42.70;19.40;;;;;;;6.48;100.00;98695.41;106163;1279;24420;-58